sensor_id;sensor_type;location;lat;lon;timestamp;P1;durP1;ratioP1;P2;durP2;ratioP2
44434;SDS011;30138;20.964;105.830;2022-10-31T00:00:42;38.60;;;22.60;;
44434;SDS011;30138;20.964;105.830;2022-10-31T00:05:51;37.25;;;22.10;;
44434;SDS011;30138;20.964;105.830;2022-10-31T00:10:58;38.10;;;22.38;;
44434;SDS011;30138;20.964;105.830;2022-10-31T00:16:06;39.22;;;20.70;;
44434;SDS011;30138;20.964;105.830;2022-10-31T00:21:22;42.30;;;22.33;;
44434;SDS011;30138;20.964;105.830;2022-10-31T00:26:30;40.00;;;21.70;;
44434;SDS011;30138;20.964;105.830;2022-10-31T00:31:37;36.20;;;21.67;;
44434;SDS011;30138;20.964;105.830;2022-10-31T00:36:46;35.75;;;21.10;;
44434;SDS011;30138;20.964;105.830;2022-10-31T00:41:54;35.83;;;21.67;;
44434;SDS011;30138;20.964;105.830;2022-10-31T00:47:01;31.92;;;20.45;;
44434;SDS011;30138;20.964;105.830;2022-10-31T00:52:10;34.63;;;20.25;;
44434;SDS011;30138;20.964;105.830;2022-10-31T00:57:18;33.10;;;20.70;;
44434;SDS011;30138;20.964;105.830;2022-10-31T01:02:26;36.33;;;21.33;;
44434;SDS011;30138;20.964;105.830;2022-10-31T01:07:37;41.90;;;20.73;;
44434;SDS011;30138;20.964;105.830;2022-10-31T01:12:47;33.63;;;21.30;;
44434;SDS011;30138;20.964;105.830;2022-10-31T01:17:57;32.22;;;19.70;;
44434;SDS011;30138;20.964;105.830;2022-10-31T01:23:07;33.75;;;20.42;;
44434;SDS011;30138;20.964;105.830;2022-10-31T01:28:15;31.73;;;19.77;;
44434;SDS011;30138;20.964;105.830;2022-10-31T01:33:23;27.73;;;19.50;;
44434;SDS011;30138;20.964;105.830;2022-10-31T01:38:33;35.58;;;20.05;;
44434;SDS011;30138;20.964;105.830;2022-10-31T01:43:45;33.03;;;20.20;;
44434;SDS011;30138;20.964;105.830;2022-10-31T01:48:54;28.65;;;18.85;;
44434;SDS011;30138;20.964;105.830;2022-10-31T01:54:06;31.13;;;18.38;;
44434;SDS011;30138;20.964;105.830;2022-10-31T01:59:18;26.10;;;18.38;;
44434;SDS011;30138;20.964;105.830;2022-10-31T02:04:27;28.02;;;17.98;;
44434;SDS011;30138;20.964;105.830;2022-10-31T02:09:37;24.15;;;16.60;;
44434;SDS011;30138;20.964;105.830;2022-10-31T02:14:46;26.70;;;17.17;;
44434;SDS011;30138;20.964;105.830;2022-10-31T02:20:00;24.33;;;17.08;;
44434;SDS011;30138;20.964;105.830;2022-10-31T02:25:26;25.73;;;17.75;;
44434;SDS011;30138;20.964;105.830;2022-10-31T02:36:27;22.88;;;15.95;;
44434;SDS011;30138;20.964;105.830;2022-10-31T02:41:41;24.60;;;15.68;;
44434;SDS011;30138;20.964;105.830;2022-10-31T02:46:54;23.50;;;15.60;;
44434;SDS011;30138;20.964;105.830;2022-10-31T02:52:14;23.52;;;15.52;;
44434;SDS011;30138;20.964;105.830;2022-10-31T02:57:25;23.30;;;15.38;;
44434;SDS011;30138;20.964;105.830;2022-10-31T03:02:48;23.50;;;15.60;;
44434;SDS011;30138;20.964;105.830;2022-10-31T03:08:06;25.38;;;15.30;;
44434;SDS011;30138;20.964;105.830;2022-10-31T03:13:23;25.60;;;14.15;;
44434;SDS011;30138;20.964;105.830;2022-10-31T03:18:42;21.35;;;14.45;;
44434;SDS011;30138;20.964;105.830;2022-10-31T03:23:55;20.95;;;13.77;;
44434;SDS011;30138;20.964;105.830;2022-10-31T03:29:05;26.27;;;14.30;;
44434;SDS011;30138;20.964;105.830;2022-10-31T03:34:18;20.38;;;13.82;;
44434;SDS011;30138;20.964;105.830;2022-10-31T03:39:27;21.73;;;13.73;;
44434;SDS011;30138;20.964;105.830;2022-10-31T03:44:37;24.13;;;14.43;;
44434;SDS011;30138;20.964;105.830;2022-10-31T03:49:51;20.67;;;14.18;;
44434;SDS011;30138;20.964;105.830;2022-10-31T03:55:02;18.25;;;12.90;;
44434;SDS011;30138;20.964;105.830;2022-10-31T04:00:16;21.55;;;13.38;;
44434;SDS011;30138;20.964;105.830;2022-10-31T04:05:28;17.63;;;12.53;;
44434;SDS011;30138;20.964;105.830;2022-10-31T04:10:37;20.38;;;13.43;;
44434;SDS011;30138;20.964;105.830;2022-10-31T04:15:45;20.70;;;12.88;;
44434;SDS011;30138;20.964;105.830;2022-10-31T04:21:02;22.35;;;13.02;;
44434;SDS011;30138;20.964;105.830;2022-10-31T04:26:11;18.17;;;12.60;;
44434;SDS011;30138;20.964;105.830;2022-10-31T04:31:18;17.85;;;12.77;;
44434;SDS011;30138;20.964;105.830;2022-10-31T04:36:29;19.20;;;12.43;;
44434;SDS011;30138;20.964;105.830;2022-10-31T04:41:37;19.33;;;12.65;;
44434;SDS011;30138;20.964;105.830;2022-10-31T04:46:50;18.50;;;12.10;;
44434;SDS011;30138;20.964;105.830;2022-10-31T04:52:00;23.40;;;12.15;;
44434;SDS011;30138;20.964;105.830;2022-10-31T04:57:10;18.70;;;12.07;;
44434;SDS011;30138;20.964;105.830;2022-10-31T05:02:18;17.23;;;12.10;;
44434;SDS011;30138;20.964;105.830;2022-10-31T05:07:32;15.45;;;11.32;;
44434;SDS011;30138;20.964;105.830;2022-10-31T05:12:45;21.83;;;11.70;;
44434;SDS011;30138;20.964;105.830;2022-10-31T05:18:11;17.67;;;11.20;;
44434;SDS011;30138;20.964;105.830;2022-10-31T05:23:26;14.98;;;11.50;;
44434;SDS011;30138;20.964;105.830;2022-10-31T05:28:34;18.60;;;11.32;;
44434;SDS011;30138;20.964;105.830;2022-10-31T05:33:42;16.23;;;11.30;;
44434;SDS011;30138;20.964;105.830;2022-10-31T05:39:10;14.80;;;11.10;;
44434;SDS011;30138;20.964;105.830;2022-10-31T05:44:22;17.50;;;11.55;;
44434;SDS011;30138;20.964;105.830;2022-10-31T05:49:40;17.70;;;11.05;;
44434;SDS011;30138;20.964;105.830;2022-10-31T05:55:25;17.02;;;11.07;;
44434;SDS011;30138;20.964;105.830;2022-10-31T06:00:53;18.25;;;11.32;;
44434;SDS011;30138;20.964;105.830;2022-10-31T06:06:01;12.60;;;9.98;;
44434;SDS011;30138;20.964;105.830;2022-10-31T06:11:17;15.73;;;10.48;;
44434;SDS011;30138;20.964;105.830;2022-10-31T06:16:39;17.42;;;10.65;;
44434;SDS011;30138;20.964;105.830;2022-10-31T06:22:09;15.85;;;10.13;;
44434;SDS011;30138;20.964;105.830;2022-10-31T06:27:19;14.90;;;9.25;;
44434;SDS011;30138;20.964;105.830;2022-10-31T06:32:28;15.35;;;10.30;;
44434;SDS011;30138;20.964;105.830;2022-10-31T06:37:35;15.52;;;9.50;;
44434;SDS011;30138;20.964;105.830;2022-10-31T06:43:03;14.48;;;10.52;;
44434;SDS011;30138;20.964;105.830;2022-10-31T06:48:14;14.98;;;10.38;;
44434;SDS011;30138;20.964;105.830;2022-10-31T06:53:39;17.60;;;10.35;;
44434;SDS011;30138;20.964;105.830;2022-10-31T06:58:52;13.45;;;9.57;;
44434;SDS011;30138;20.964;105.830;2022-10-31T07:04:28;17.90;;;10.10;;
44434;SDS011;30138;20.964;105.830;2022-10-31T07:09:36;15.57;;;10.23;;
44434;SDS011;30138;20.964;105.830;2022-10-31T07:14:47;13.20;;;10.00;;
44434;SDS011;30138;20.964;105.830;2022-10-31T07:19:55;13.75;;;10.27;;
44434;SDS011;30138;20.964;105.830;2022-10-31T07:25:02;14.75;;;10.65;;
44434;SDS011;30138;20.964;105.830;2022-10-31T07:30:31;23.80;;;10.50;;
44434;SDS011;30138;20.964;105.830;2022-10-31T07:35:39;14.95;;;10.27;;
44434;SDS011;30138;20.964;105.830;2022-10-31T07:40:49;14.73;;;11.15;;
44434;SDS011;30138;20.964;105.830;2022-10-31T07:46:00;15.88;;;10.57;;
44434;SDS011;30138;20.964;105.830;2022-10-31T07:51:26;14.27;;;10.55;;
44434;SDS011;30138;20.964;105.830;2022-10-31T07:57:07;14.07;;;10.60;;
44434;SDS011;30138;20.964;105.830;2022-10-31T08:02:16;15.27;;;11.10;;
44434;SDS011;30138;20.964;105.830;2022-10-31T08:07:23;18.95;;;11.95;;
44434;SDS011;30138;20.964;105.830;2022-10-31T08:12:36;15.18;;;11.57;;
44434;SDS011;30138;20.964;105.830;2022-10-31T08:17:45;18.58;;;11.73;;
44434;SDS011;30138;20.964;105.830;2022-10-31T08:22:56;17.83;;;11.45;;
44434;SDS011;30138;20.964;105.830;2022-10-31T08:28:06;22.02;;;12.60;;
44434;SDS011;30138;20.964;105.830;2022-10-31T08:33:19;23.73;;;12.50;;
44434;SDS011;30138;20.964;105.830;2022-10-31T08:38:55;18.15;;;12.02;;
44434;SDS011;30138;20.964;105.830;2022-10-31T08:44:04;18.00;;;12.93;;
44434;SDS011;30138;20.964;105.830;2022-10-31T08:49:15;17.25;;;13.27;;
44434;SDS011;30138;20.964;105.830;2022-10-31T08:54:23;23.17;;;13.52;;
44434;SDS011;30138;20.964;105.830;2022-10-31T08:59:31;21.08;;;13.30;;
44434;SDS011;30138;20.964;105.830;2022-10-31T09:05:03;23.67;;;13.10;;
44434;SDS011;30138;20.964;105.830;2022-10-31T09:10:10;20.08;;;13.00;;
44434;SDS011;30138;20.964;105.830;2022-10-31T09:15:20;18.38;;;12.70;;
44434;SDS011;30138;20.964;105.830;2022-10-31T09:20:46;18.40;;;12.98;;
44434;SDS011;30138;20.964;105.830;2022-10-31T09:25:54;16.83;;;12.40;;
44434;SDS011;30138;20.964;105.830;2022-10-31T09:31:05;18.40;;;12.63;;
44434;SDS011;30138;20.964;105.830;2022-10-31T09:36:32;23.48;;;13.48;;
44434;SDS011;30138;20.964;105.830;2022-10-31T09:41:48;17.73;;;12.95;;
44434;SDS011;30138;20.964;105.830;2022-10-31T09:47:23;25.40;;;13.63;;
44434;SDS011;30138;20.964;105.830;2022-10-31T09:53:03;22.13;;;14.02;;
44434;SDS011;30138;20.964;105.830;2022-10-31T09:58:19;23.77;;;12.95;;
44434;SDS011;30138;20.964;105.830;2022-10-31T10:03:31;20.75;;;14.07;;
44434;SDS011;30138;20.964;105.830;2022-10-31T10:09:04;21.92;;;14.82;;
44434;SDS011;30138;20.964;105.830;2022-10-31T10:14:45;28.60;;;15.63;;
44434;SDS011;30138;20.964;105.830;2022-10-31T10:20:25;23.58;;;14.52;;
44434;SDS011;30138;20.964;105.830;2022-10-31T10:25:45;26.17;;;16.25;;
44434;SDS011;30138;20.964;105.830;2022-10-31T10:30:59;27.45;;;16.05;;
44434;SDS011;30138;20.964;105.830;2022-10-31T10:36:10;31.25;;;17.33;;
44434;SDS011;30138;20.964;105.830;2022-10-31T10:41:26;33.42;;;17.88;;
44434;SDS011;30138;20.964;105.830;2022-10-31T10:46:39;30.38;;;18.48;;
44434;SDS011;30138;20.964;105.830;2022-10-31T10:52:06;35.33;;;18.90;;
44434;SDS011;30138;20.964;105.830;2022-10-31T11:02:57;34.88;;;19.15;;
44434;SDS011;30138;20.964;105.830;2022-10-31T11:08:06;35.50;;;20.10;;
44434;SDS011;30138;20.964;105.830;2022-10-31T11:13:22;33.13;;;19.73;;
44434;SDS011;30138;20.964;105.830;2022-10-31T11:18:31;39.63;;;21.45;;
44434;SDS011;30138;20.964;105.830;2022-10-31T11:23:41;34.20;;;21.13;;
44434;SDS011;30138;20.964;105.830;2022-10-31T11:28:57;33.65;;;20.52;;
44434;SDS011;30138;20.964;105.830;2022-10-31T11:34:06;33.95;;;19.92;;
44434;SDS011;30138;20.964;105.830;2022-10-31T11:39:21;36.83;;;20.77;;
44434;SDS011;30138;20.964;105.830;2022-10-31T11:44:31;36.75;;;21.52;;
44434;SDS011;30138;20.964;105.830;2022-10-31T11:49:39;36.75;;;20.73;;
44434;SDS011;30138;20.964;105.830;2022-10-31T11:54:52;36.90;;;20.30;;
44434;SDS011;30138;20.964;105.830;2022-10-31T12:00:17;36.65;;;20.65;;
44434;SDS011;30138;20.964;105.830;2022-10-31T12:05:28;38.50;;;20.52;;
44434;SDS011;30138;20.964;105.830;2022-10-31T12:10:40;38.57;;;20.97;;
44434;SDS011;30138;20.964;105.830;2022-10-31T12:15:58;34.03;;;19.25;;
44434;SDS011;30138;20.964;105.830;2022-10-31T12:21:17;33.28;;;19.02;;
44434;SDS011;30138;20.964;105.830;2022-10-31T12:26:54;32.53;;;18.95;;
44434;SDS011;30138;20.964;105.830;2022-10-31T12:32:24;34.72;;;18.42;;
44434;SDS011;30138;20.964;105.830;2022-10-31T12:37:44;34.80;;;18.40;;
44434;SDS011;30138;20.964;105.830;2022-10-31T12:43:11;29.48;;;17.30;;
44434;SDS011;30138;20.964;105.830;2022-10-31T12:54:34;32.55;;;16.58;;
44434;SDS011;30138;20.964;105.830;2022-10-31T12:59:59;32.42;;;17.73;;
44434;SDS011;30138;20.964;105.830;2022-10-31T13:10:22;26.55;;;16.30;;
44434;SDS011;30138;20.964;105.830;2022-10-31T13:15:38;32.10;;;17.98;;
44434;SDS011;30138;20.964;105.830;2022-10-31T13:20:53;31.35;;;17.95;;
44434;SDS011;30138;20.964;105.830;2022-10-31T13:26:06;31.25;;;17.63;;
44434;SDS011;30138;20.964;105.830;2022-10-31T13:31:22;29.05;;;16.63;;
44434;SDS011;30138;20.964;105.830;2022-10-31T13:36:31;29.77;;;17.60;;
44434;SDS011;30138;20.964;105.830;2022-10-31T13:41:46;29.75;;;18.40;;
44434;SDS011;30138;20.964;105.830;2022-10-31T13:46:59;31.95;;;17.10;;
44434;SDS011;30138;20.964;105.830;2022-10-31T13:52:12;24.58;;;16.33;;
44434;SDS011;30138;20.964;105.830;2022-10-31T14:03:18;28.77;;;16.85;;
44434;SDS011;30138;20.964;105.830;2022-10-31T14:08:28;24.92;;;16.17;;
44434;SDS011;30138;20.964;105.830;2022-10-31T14:13:46;33.08;;;15.45;;
44434;SDS011;30138;20.964;105.830;2022-10-31T14:18:58;27.38;;;15.23;;
44434;SDS011;30138;20.964;105.830;2022-10-31T14:24:13;25.85;;;14.80;;
44434;SDS011;30138;20.964;105.830;2022-10-31T14:29:42;25.70;;;14.73;;
44434;SDS011;30138;20.964;105.830;2022-10-31T14:34:53;25.10;;;15.27;;
44434;SDS011;30138;20.964;105.830;2022-10-31T14:40:08;25.58;;;14.63;;
44434;SDS011;30138;20.964;105.830;2022-10-31T14:45:37;25.20;;;15.80;;
44434;SDS011;30138;20.964;105.830;2022-10-31T14:50:56;26.25;;;15.40;;
44434;SDS011;30138;20.964;105.830;2022-10-31T14:56:04;32.63;;;14.82;;
44434;SDS011;30138;20.964;105.830;2022-10-31T15:01:21;29.73;;;13.90;;
44434;SDS011;30138;20.964;105.830;2022-10-31T15:06:30;24.48;;;14.40;;
44434;SDS011;30138;20.964;105.830;2022-10-31T15:11:47;25.92;;;13.98;;
44434;SDS011;30138;20.964;105.830;2022-10-31T15:16:56;24.83;;;13.95;;
44434;SDS011;30138;20.964;105.830;2022-10-31T15:22:07;23.98;;;13.95;;
44434;SDS011;30138;20.964;105.830;2022-10-31T15:27:22;27.83;;;15.05;;
44434;SDS011;30138;20.964;105.830;2022-10-31T15:32:36;30.38;;;15.13;;
44434;SDS011;30138;20.964;105.830;2022-10-31T15:37:51;28.98;;;15.63;;
44434;SDS011;30138;20.964;105.830;2022-10-31T15:43:00;32.95;;;14.73;;
44434;SDS011;30138;20.964;105.830;2022-10-31T15:48:15;33.27;;;15.97;;
44434;SDS011;30138;20.964;105.830;2022-10-31T15:53:24;29.90;;;16.55;;
44434;SDS011;30138;20.964;105.830;2022-10-31T15:58:39;31.27;;;15.18;;
44434;SDS011;30138;20.964;105.830;2022-10-31T16:04:05;28.33;;;15.13;;
44434;SDS011;30138;20.964;105.830;2022-10-31T16:09:26;26.48;;;15.13;;
44434;SDS011;30138;20.964;105.830;2022-10-31T16:14:43;27.85;;;14.35;;
44434;SDS011;30138;20.964;105.830;2022-10-31T16:19:53;30.10;;;15.07;;
44434;SDS011;30138;20.964;105.830;2022-10-31T16:25:03;34.00;;;14.90;;
44434;SDS011;30138;20.964;105.830;2022-10-31T16:30:37;28.02;;;15.70;;
44434;SDS011;30138;20.964;105.830;2022-10-31T16:35:56;29.95;;;16.35;;
44434;SDS011;30138;20.964;105.830;2022-10-31T16:41:04;34.95;;;16.20;;
44434;SDS011;30138;20.964;105.830;2022-10-31T16:46:12;37.50;;;15.90;;
44434;SDS011;30138;20.964;105.830;2022-10-31T16:51:28;30.80;;;15.68;;
44434;SDS011;30138;20.964;105.830;2022-10-31T16:56:35;28.02;;;15.55;;
44434;SDS011;30138;20.964;105.830;2022-10-31T17:01:43;30.02;;;15.55;;
44434;SDS011;30138;20.964;105.830;2022-10-31T17:06:57;33.10;;;14.88;;
44434;SDS011;30138;20.964;105.830;2022-10-31T17:12:10;30.27;;;15.63;;
44434;SDS011;30138;20.964;105.830;2022-10-31T17:17:29;36.38;;;15.30;;
44434;SDS011;30138;20.964;105.830;2022-10-31T17:22:49;25.17;;;14.00;;
44434;SDS011;30138;20.964;105.830;2022-10-31T17:28:04;23.48;;;13.52;;
44434;SDS011;30138;20.964;105.830;2022-10-31T17:33:23;27.45;;;14.23;;
44434;SDS011;30138;20.964;105.830;2022-10-31T17:38:42;23.02;;;13.50;;
44434;SDS011;30138;20.964;105.830;2022-10-31T17:44:03;28.35;;;14.13;;
44434;SDS011;30138;20.964;105.830;2022-10-31T17:49:18;25.88;;;13.85;;
44434;SDS011;30138;20.964;105.830;2022-10-31T17:54:32;23.08;;;13.25;;
44434;SDS011;30138;20.964;105.830;2022-10-31T17:59:39;26.67;;;13.48;;
44434;SDS011;30138;20.964;105.830;2022-10-31T18:04:50;29.02;;;14.20;;
44434;SDS011;30138;20.964;105.830;2022-10-31T18:10:00;24.33;;;13.73;;
44434;SDS011;30138;20.964;105.830;2022-10-31T18:15:08;28.55;;;13.93;;
44434;SDS011;30138;20.964;105.830;2022-10-31T18:20:15;23.38;;;12.93;;
44434;SDS011;30138;20.964;105.830;2022-10-31T18:25:26;20.27;;;12.32;;
44434;SDS011;30138;20.964;105.830;2022-10-31T18:30:32;23.13;;;12.82;;
44434;SDS011;30138;20.964;105.830;2022-10-31T18:35:42;28.88;;;14.23;;
44434;SDS011;30138;20.964;105.830;2022-10-31T18:40:52;24.58;;;13.60;;
44434;SDS011;30138;20.964;105.830;2022-10-31T18:46:00;23.60;;;14.55;;
44434;SDS011;30138;20.964;105.830;2022-10-31T18:51:08;26.27;;;14.45;;
44434;SDS011;30138;20.964;105.830;2022-10-31T18:56:32;23.42;;;13.35;;
44434;SDS011;30138;20.964;105.830;2022-10-31T19:01:47;33.45;;;13.95;;
44434;SDS011;30138;20.964;105.830;2022-10-31T19:06:54;23.35;;;13.50;;
44434;SDS011;30138;20.964;105.830;2022-10-31T19:12:04;26.52;;;13.73;;
44434;SDS011;30138;20.964;105.830;2022-10-31T19:17:12;20.38;;;12.63;;
44434;SDS011;30138;20.964;105.830;2022-10-31T19:22:19;26.60;;;13.70;;
44434;SDS011;30138;20.964;105.830;2022-10-31T19:27:29;25.60;;;14.32;;
44434;SDS011;30138;20.964;105.830;2022-10-31T19:32:36;22.80;;;13.45;;
44434;SDS011;30138;20.964;105.830;2022-10-31T19:37:44;28.58;;;14.35;;
44434;SDS011;30138;20.964;105.830;2022-10-31T19:42:53;28.88;;;14.82;;
44434;SDS011;30138;20.964;105.830;2022-10-31T19:48:02;28.27;;;14.63;;
44434;SDS011;30138;20.964;105.830;2022-10-31T19:53:10;28.75;;;15.70;;
44434;SDS011;30138;20.964;105.830;2022-10-31T19:58:20;26.20;;;16.05;;
44434;SDS011;30138;20.964;105.830;2022-10-31T20:03:27;29.97;;;15.27;;
44434;SDS011;30138;20.964;105.830;2022-10-31T20:08:35;30.65;;;15.93;;
44434;SDS011;30138;20.964;105.830;2022-10-31T20:13:45;25.55;;;14.50;;
44434;SDS011;30138;20.964;105.830;2022-10-31T20:18:52;29.42;;;15.60;;
44434;SDS011;30138;20.964;105.830;2022-10-31T20:24:00;32.42;;;15.48;;
44434;SDS011;30138;20.964;105.830;2022-10-31T20:29:12;25.45;;;14.30;;
44434;SDS011;30138;20.964;105.830;2022-10-31T20:34:20;26.50;;;15.30;;
44434;SDS011;30138;20.964;105.830;2022-10-31T20:39:29;28.60;;;15.75;;
44434;SDS011;30138;20.964;105.830;2022-10-31T20:44:39;32.92;;;16.10;;
44434;SDS011;30138;20.964;105.830;2022-10-31T20:49:46;34.28;;;17.38;;
44434;SDS011;30138;20.964;105.830;2022-10-31T20:54:54;31.42;;;17.42;;
44434;SDS011;30138;20.964;105.830;2022-10-31T21:00:03;37.42;;;19.45;;
44434;SDS011;30138;20.964;105.830;2022-10-31T21:05:12;39.22;;;20.42;;
44434;SDS011;30138;20.964;105.830;2022-10-31T21:10:19;39.25;;;21.13;;
44434;SDS011;30138;20.964;105.830;2022-10-31T21:15:28;40.95;;;20.30;;
44434;SDS011;30138;20.964;105.830;2022-10-31T21:20:38;47.53;;;23.35;;
44434;SDS011;30138;20.964;105.830;2022-10-31T21:25:45;40.58;;;23.63;;
44434;SDS011;30138;20.964;105.830;2022-10-31T21:30:55;40.75;;;22.85;;
44434;SDS011;30138;20.964;105.830;2022-10-31T21:36:02;48.67;;;23.52;;
44434;SDS011;30138;20.964;105.830;2022-10-31T21:41:10;42.13;;;22.20;;
44434;SDS011;30138;20.964;105.830;2022-10-31T21:46:20;46.90;;;23.45;;
44434;SDS011;30138;20.964;105.830;2022-10-31T21:51:30;42.60;;;24.08;;
44434;SDS011;30138;20.964;105.830;2022-10-31T21:56:38;41.83;;;23.92;;
44434;SDS011;30138;20.964;105.830;2022-10-31T22:01:47;53.35;;;25.33;;
44434;SDS011;30138;20.964;105.830;2022-10-31T22:06:56;46.47;;;25.93;;
44434;SDS011;30138;20.964;105.830;2022-10-31T22:12:04;51.20;;;25.00;;
44434;SDS011;30138;20.964;105.830;2022-10-31T22:17:12;48.40;;;26.35;;
44434;SDS011;30138;20.964;105.830;2022-10-31T22:22:20;58.67;;;26.80;;
44434;SDS011;30138;20.964;105.830;2022-10-31T22:27:26;44.20;;;25.63;;
44434;SDS011;30138;20.964;105.830;2022-10-31T22:32:36;52.85;;;25.70;;
44434;SDS011;30138;20.964;105.830;2022-10-31T22:37:43;51.72;;;25.73;;
44434;SDS011;30138;20.964;105.830;2022-10-31T22:42:50;46.20;;;25.25;;
44434;SDS011;30138;20.964;105.830;2022-10-31T22:47:59;50.20;;;26.20;;
44434;SDS011;30138;20.964;105.830;2022-10-31T22:53:07;51.03;;;25.95;;
44434;SDS011;30138;20.964;105.830;2022-10-31T22:58:16;45.22;;;25.13;;
44434;SDS011;30138;20.964;105.830;2022-10-31T23:03:25;53.78;;;28.25;;
44434;SDS011;30138;20.964;105.830;2022-10-31T23:08:33;48.33;;;26.27;;
44434;SDS011;30138;20.964;105.830;2022-10-31T23:13:42;58.40;;;27.07;;
44434;SDS011;30138;20.964;105.830;2022-10-31T23:19:07;57.97;;;26.73;;
44434;SDS011;30138;20.964;105.830;2022-10-31T23:24:19;45.95;;;25.63;;
44434;SDS011;30138;20.964;105.830;2022-10-31T23:29:30;67.72;;;28.05;;
44434;SDS011;30138;20.964;105.830;2022-10-31T23:34:41;58.88;;;26.88;;
44434;SDS011;30138;20.964;105.830;2022-10-31T23:39:49;51.45;;;25.63;;
44434;SDS011;30138;20.964;105.830;2022-10-31T23:44:55;59.63;;;27.10;;
44434;SDS011;30138;20.964;105.830;2022-10-31T23:50:04;52.28;;;26.73;;
44434;SDS011;30138;20.964;105.830;2022-10-31T23:55:12;50.95;;;27.88;;
